sensor_id;sensor_type;location;lat;lon;timestamp;P1;durP1;ratioP1;P2;durP2;ratioP2
68438;SDS011;55421;51.600;5.718;2023-05-07T00:01:24;7.80;;;5.50;;
68438;SDS011;55421;51.600;5.718;2023-05-07T00:03:51;9.00;;;5.70;;
68438;SDS011;55421;51.600;5.718;2023-05-07T00:06:17;6.40;;;5.80;;
68438;SDS011;55421;51.600;5.718;2023-05-07T00:08:44;6.60;;;5.50;;
68438;SDS011;55421;51.600;5.718;2023-05-07T00:11:10;7.30;;;5.70;;
68438;SDS011;55421;51.600;5.718;2023-05-07T00:13:37;9.70;;;6.30;;
68438;SDS011;55421;51.600;5.718;2023-05-07T00:16:04;9.00;;;6.10;;
68438;SDS011;55421;51.600;5.718;2023-05-07T00:18:31;8.10;;;6.20;;
68438;SDS011;55421;51.600;5.718;2023-05-07T00:20:57;10.70;;;6.40;;
68438;SDS011;55421;51.600;5.718;2023-05-07T00:23:24;7.60;;;5.90;;
68438;SDS011;55421;51.600;5.718;2023-05-07T00:25:50;7.40;;;5.80;;
68438;SDS011;55421;51.600;5.718;2023-05-07T00:28:17;6.90;;;6.20;;
68438;SDS011;55421;51.600;5.718;2023-05-07T00:30:43;7.80;;;6.50;;
68438;SDS011;55421;51.600;5.718;2023-05-07T00:33:10;9.50;;;6.30;;
68438;SDS011;55421;51.600;5.718;2023-05-07T00:35:37;6.70;;;6.00;;
68438;SDS011;55421;51.600;5.718;2023-05-07T00:38:03;7.20;;;6.20;;
68438;SDS011;55421;51.600;5.718;2023-05-07T00:40:30;10.40;;;6.40;;
68438;SDS011;55421;51.600;5.718;2023-05-07T00:42:56;9.00;;;6.10;;
68438;SDS011;55421;51.600;5.718;2023-05-07T00:45:26;7.00;;;6.20;;
68438;SDS011;55421;51.600;5.718;2023-05-07T00:47:56;7.70;;;6.60;;
68438;SDS011;55421;51.600;5.718;2023-05-07T00:52:53;7.60;;;6.10;;
68438;SDS011;55421;51.600;5.718;2023-05-07T00:55:21;8.20;;;6.90;;
68438;SDS011;55421;51.600;5.718;2023-05-07T00:57:50;8.60;;;6.60;;
68438;SDS011;55421;51.600;5.718;2023-05-07T01:00:18;10.40;;;7.30;;
68438;SDS011;55421;51.600;5.718;2023-05-07T01:02:45;10.40;;;7.40;;
68438;SDS011;55421;51.600;5.718;2023-05-07T01:05:15;8.00;;;7.10;;
68438;SDS011;55421;51.600;5.718;2023-05-07T01:07:45;10.90;;;7.70;;
68438;SDS011;55421;51.600;5.718;2023-05-07T01:10:12;10.30;;;7.40;;
68438;SDS011;55421;51.600;5.718;2023-05-07T01:12:41;9.70;;;6.60;;
68438;SDS011;55421;51.600;5.718;2023-05-07T01:15:09;9.90;;;7.00;;
68438;SDS011;55421;51.600;5.718;2023-05-07T01:17:38;8.90;;;7.20;;
68438;SDS011;55421;51.600;5.718;2023-05-07T01:20:07;12.70;;;7.80;;
68438;SDS011;55421;51.600;5.718;2023-05-07T01:22:37;9.70;;;7.30;;
68438;SDS011;55421;51.600;5.718;2023-05-07T01:25:06;11.70;;;7.80;;
68438;SDS011;55421;51.600;5.718;2023-05-07T01:27:35;9.20;;;8.00;;
68438;SDS011;55421;51.600;5.718;2023-05-07T01:30:06;10.40;;;7.30;;
68438;SDS011;55421;51.600;5.718;2023-05-07T01:32:37;10.10;;;8.10;;
68438;SDS011;55421;51.600;5.718;2023-05-07T01:35:11;11.10;;;7.80;;
68438;SDS011;55421;51.600;5.718;2023-05-07T01:37:40;13.10;;;8.00;;
68438;SDS011;55421;51.600;5.718;2023-05-07T01:40:08;9.90;;;7.50;;
68438;SDS011;55421;51.600;5.718;2023-05-07T01:42:36;11.30;;;8.30;;
68438;SDS011;55421;51.600;5.718;2023-05-07T01:45:03;10.50;;;8.50;;
68438;SDS011;55421;51.600;5.718;2023-05-07T01:47:30;10.50;;;8.90;;
68438;SDS011;55421;51.600;5.718;2023-05-07T01:49:57;9.40;;;8.10;;
68438;SDS011;55421;51.600;5.718;2023-05-07T01:52:24;11.90;;;8.60;;
68438;SDS011;55421;51.600;5.718;2023-05-07T01:54:51;10.60;;;8.10;;
68438;SDS011;55421;51.600;5.718;2023-05-07T01:57:18;11.10;;;8.90;;
68438;SDS011;55421;51.600;5.718;2023-05-07T01:59:44;11.70;;;8.60;;
68438;SDS011;55421;51.600;5.718;2023-05-07T02:02:11;11.20;;;9.10;;
68438;SDS011;55421;51.600;5.718;2023-05-07T02:04:38;10.40;;;9.30;;
68438;SDS011;55421;51.600;5.718;2023-05-07T02:07:04;13.00;;;10.10;;
68438;SDS011;55421;51.600;5.718;2023-05-07T02:09:31;14.10;;;9.60;;
68438;SDS011;55421;51.600;5.718;2023-05-07T02:11:57;11.80;;;10.00;;
68438;SDS011;55421;51.600;5.718;2023-05-07T02:14:23;14.50;;;9.90;;
68438;SDS011;55421;51.600;5.718;2023-05-07T02:16:50;12.50;;;10.00;;
68438;SDS011;55421;51.600;5.718;2023-05-07T02:19:16;14.40;;;10.30;;
68438;SDS011;55421;51.600;5.718;2023-05-07T02:21:44;12.10;;;10.60;;
68438;SDS011;55421;51.600;5.718;2023-05-07T02:24:10;14.20;;;11.10;;
68438;SDS011;55421;51.600;5.718;2023-05-07T02:26:37;14.10;;;11.40;;
68438;SDS011;55421;51.600;5.718;2023-05-07T02:29:03;13.80;;;11.00;;
68438;SDS011;55421;51.600;5.718;2023-05-07T02:31:30;12.70;;;10.50;;
68438;SDS011;55421;51.600;5.718;2023-05-07T02:33:56;14.60;;;11.10;;
68438;SDS011;55421;51.600;5.718;2023-05-07T02:36:23;17.10;;;11.70;;
68438;SDS011;55421;51.600;5.718;2023-05-07T02:38:49;15.10;;;12.10;;
68438;SDS011;55421;51.600;5.718;2023-05-07T02:41:16;16.10;;;12.20;;
68438;SDS011;55421;51.600;5.718;2023-05-07T02:43:42;16.80;;;12.40;;
68438;SDS011;55421;51.600;5.718;2023-05-07T02:46:09;14.30;;;11.50;;
68438;SDS011;55421;51.600;5.718;2023-05-07T02:48:36;12.60;;;11.30;;
68438;SDS011;55421;51.600;5.718;2023-05-07T02:51:04;14.80;;;12.10;;
68438;SDS011;55421;51.600;5.718;2023-05-07T02:53:31;14.00;;;11.90;;
68438;SDS011;55421;51.600;5.718;2023-05-07T02:56:00;16.40;;;12.90;;
68438;SDS011;55421;51.600;5.718;2023-05-07T02:58:27;17.90;;;13.20;;
68438;SDS011;55421;51.600;5.718;2023-05-07T03:00:54;15.90;;;12.60;;
68438;SDS011;55421;51.600;5.718;2023-05-07T03:03:21;19.00;;;13.40;;
68438;SDS011;55421;51.600;5.718;2023-05-07T03:05:47;17.30;;;13.30;;
68438;SDS011;55421;51.600;5.718;2023-05-07T03:08:14;17.80;;;13.80;;
68438;SDS011;55421;51.600;5.718;2023-05-07T03:10:40;16.00;;;13.90;;
68438;SDS011;55421;51.600;5.718;2023-05-07T03:13:07;17.70;;;13.80;;
68438;SDS011;55421;51.600;5.718;2023-05-07T03:15:33;16.00;;;13.70;;
68438;SDS011;55421;51.600;5.718;2023-05-07T03:18:00;18.10;;;14.10;;
68438;SDS011;55421;51.600;5.718;2023-05-07T03:20:26;18.60;;;14.00;;
68438;SDS011;55421;51.600;5.718;2023-05-07T03:22:53;19.50;;;13.40;;
68438;SDS011;55421;51.600;5.718;2023-05-07T03:25:19;16.80;;;14.60;;
68438;SDS011;55421;51.600;5.718;2023-05-07T03:27:46;17.20;;;13.50;;
68438;SDS011;55421;51.600;5.718;2023-05-07T03:30:12;17.00;;;14.60;;
68438;SDS011;55421;51.600;5.718;2023-05-07T03:32:39;19.90;;;14.70;;
68438;SDS011;55421;51.600;5.718;2023-05-07T03:35:06;18.30;;;14.80;;
68438;SDS011;55421;51.600;5.718;2023-05-07T03:37:33;18.50;;;14.30;;
68438;SDS011;55421;51.600;5.718;2023-05-07T03:40:00;19.00;;;13.90;;
68438;SDS011;55421;51.600;5.718;2023-05-07T03:42:26;19.20;;;15.20;;
68438;SDS011;55421;51.600;5.718;2023-05-07T03:44:54;16.70;;;14.30;;
68438;SDS011;55421;51.600;5.718;2023-05-07T03:47:21;21.90;;;15.80;;
68438;SDS011;55421;51.600;5.718;2023-05-07T03:49:47;21.20;;;16.30;;
68438;SDS011;55421;51.600;5.718;2023-05-07T03:52:15;20.60;;;16.50;;
68438;SDS011;55421;51.600;5.718;2023-05-07T03:54:42;18.60;;;15.60;;
68438;SDS011;55421;51.600;5.718;2023-05-07T03:57:08;21.70;;;16.50;;
68438;SDS011;55421;51.600;5.718;2023-05-07T03:59:35;22.90;;;17.30;;
68438;SDS011;55421;51.600;5.718;2023-05-07T04:02:01;22.20;;;16.90;;
68438;SDS011;55421;51.600;5.718;2023-05-07T04:04:28;19.20;;;17.00;;
68438;SDS011;55421;51.600;5.718;2023-05-07T04:06:58;21.40;;;17.00;;
68438;SDS011;55421;51.600;5.718;2023-05-07T04:09:29;20.90;;;17.20;;
68438;SDS011;55421;51.600;5.718;2023-05-07T04:11:55;23.20;;;18.10;;
68438;SDS011;55421;51.600;5.718;2023-05-07T04:14:22;22.10;;;17.30;;
68438;SDS011;55421;51.600;5.718;2023-05-07T04:16:49;24.50;;;18.60;;
68438;SDS011;55421;51.600;5.718;2023-05-07T04:19:15;22.90;;;18.30;;
68438;SDS011;55421;51.600;5.718;2023-05-07T04:21:41;24.50;;;18.20;;
68438;SDS011;55421;51.600;5.718;2023-05-07T04:24:09;25.60;;;19.40;;
68438;SDS011;55421;51.600;5.718;2023-05-07T04:26:35;24.80;;;19.60;;
68438;SDS011;55421;51.600;5.718;2023-05-07T04:29:02;23.90;;;18.80;;
68438;SDS011;55421;51.600;5.718;2023-05-07T04:31:28;26.80;;;20.40;;
68438;SDS011;55421;51.600;5.718;2023-05-07T04:33:56;26.40;;;20.30;;
68438;SDS011;55421;51.600;5.718;2023-05-07T04:36:23;26.60;;;20.00;;
68438;SDS011;55421;51.600;5.718;2023-05-07T04:38:53;27.10;;;20.90;;
68438;SDS011;55421;51.600;5.718;2023-05-07T04:41:20;25.00;;;19.70;;
68438;SDS011;55421;51.600;5.718;2023-05-07T04:43:47;25.60;;;20.10;;
68438;SDS011;55421;51.600;5.718;2023-05-07T04:46:13;25.40;;;20.90;;
68438;SDS011;55421;51.600;5.718;2023-05-07T04:48:40;23.40;;;20.10;;
68438;SDS011;55421;51.600;5.718;2023-05-07T04:51:06;28.50;;;21.70;;
68438;SDS011;55421;51.600;5.718;2023-05-07T04:53:33;26.40;;;20.20;;
68438;SDS011;55421;51.600;5.718;2023-05-07T04:56:00;23.90;;;20.20;;
68438;SDS011;55421;51.600;5.718;2023-05-07T04:58:27;25.60;;;21.00;;
68438;SDS011;55421;51.600;5.718;2023-05-07T05:00:53;28.20;;;21.00;;
68438;SDS011;55421;51.600;5.718;2023-05-07T05:03:20;26.20;;;21.20;;
68438;SDS011;55421;51.600;5.718;2023-05-07T05:05:49;28.30;;;20.70;;
68438;SDS011;55421;51.600;5.718;2023-05-07T05:08:18;24.10;;;20.50;;
68438;SDS011;55421;51.600;5.718;2023-05-07T05:10:45;29.20;;;21.30;;
68438;SDS011;55421;51.600;5.718;2023-05-07T05:13:11;27.70;;;21.90;;
68438;SDS011;55421;51.600;5.718;2023-05-07T05:15:38;28.10;;;20.60;;
68438;SDS011;55421;51.600;5.718;2023-05-07T05:18:05;28.30;;;20.30;;
68438;SDS011;55421;51.600;5.718;2023-05-07T05:20:31;25.20;;;20.70;;
68438;SDS011;55421;51.600;5.718;2023-05-07T05:22:58;26.50;;;20.70;;
68438;SDS011;55421;51.600;5.718;2023-05-07T05:25:25;27.70;;;20.40;;
68438;SDS011;55421;51.600;5.718;2023-05-07T05:27:51;25.40;;;20.70;;
68438;SDS011;55421;51.600;5.718;2023-05-07T05:30:18;29.00;;;21.70;;
68438;SDS011;55421;51.600;5.718;2023-05-07T05:32:44;24.70;;;20.50;;
68438;SDS011;55421;51.600;5.718;2023-05-07T05:35:11;24.40;;;20.80;;
68438;SDS011;55421;51.600;5.718;2023-05-07T05:37:37;24.20;;;20.20;;
68438;SDS011;55421;51.600;5.718;2023-05-07T05:40:04;24.70;;;21.00;;
68438;SDS011;55421;51.600;5.718;2023-05-07T05:42:31;25.60;;;20.40;;
68438;SDS011;55421;51.600;5.718;2023-05-07T05:44:58;25.60;;;20.50;;
68438;SDS011;55421;51.600;5.718;2023-05-07T05:47:24;26.70;;;20.20;;
68438;SDS011;55421;51.600;5.718;2023-05-07T05:49:51;25.80;;;20.90;;
68438;SDS011;55421;51.600;5.718;2023-05-07T05:52:17;25.00;;;20.00;;
68438;SDS011;55421;51.600;5.718;2023-05-07T05:54:44;25.40;;;20.30;;
68438;SDS011;55421;51.600;5.718;2023-05-07T05:57:10;23.40;;;19.90;;
68438;SDS011;55421;51.600;5.718;2023-05-07T05:59:37;23.40;;;19.60;;
68438;SDS011;55421;51.600;5.718;2023-05-07T06:02:03;25.20;;;19.60;;
68438;SDS011;55421;51.600;5.718;2023-05-07T06:04:30;25.50;;;19.60;;
68438;SDS011;55421;51.600;5.718;2023-05-07T06:06:56;23.30;;;18.50;;
68438;SDS011;55421;51.600;5.718;2023-05-07T06:09:23;23.30;;;19.30;;
68438;SDS011;55421;51.600;5.718;2023-05-07T06:11:49;25.60;;;19.50;;
68438;SDS011;55421;51.600;5.718;2023-05-07T06:14:16;23.50;;;18.80;;
68438;SDS011;55421;51.600;5.718;2023-05-07T06:16:42;24.80;;;19.10;;
68438;SDS011;55421;51.600;5.718;2023-05-07T06:19:09;24.50;;;19.20;;
68438;SDS011;55421;51.600;5.718;2023-05-07T06:21:35;25.10;;;18.90;;
68438;SDS011;55421;51.600;5.718;2023-05-07T06:24:02;23.10;;;19.20;;
68438;SDS011;55421;51.600;5.718;2023-05-07T06:26:28;23.60;;;18.70;;
68438;SDS011;55421;51.600;5.718;2023-05-07T06:28:55;24.50;;;19.00;;
68438;SDS011;55421;51.600;5.718;2023-05-07T06:31:21;22.90;;;18.10;;
68438;SDS011;55421;51.600;5.718;2023-05-07T06:33:49;20.80;;;17.80;;
68438;SDS011;55421;51.600;5.718;2023-05-07T06:36:16;22.20;;;18.60;;
68438;SDS011;55421;51.600;5.718;2023-05-07T06:38:42;22.60;;;19.20;;
68438;SDS011;55421;51.600;5.718;2023-05-07T06:41:09;20.80;;;17.50;;
68438;SDS011;55421;51.600;5.718;2023-05-07T06:43:35;20.70;;;17.50;;
68438;SDS011;55421;51.600;5.718;2023-05-07T06:46:02;19.30;;;17.20;;
68438;SDS011;55421;51.600;5.718;2023-05-07T06:48:28;21.90;;;17.20;;
68438;SDS011;55421;51.600;5.718;2023-05-07T06:50:55;20.10;;;16.40;;
68438;SDS011;55421;51.600;5.718;2023-05-07T06:53:24;18.60;;;16.70;;
68438;SDS011;55421;51.600;5.718;2023-05-07T06:55:50;19.30;;;16.50;;
68438;SDS011;55421;51.600;5.718;2023-05-07T06:58:18;22.70;;;16.80;;
68438;SDS011;55421;51.600;5.718;2023-05-07T07:00:44;22.20;;;17.00;;
68438;SDS011;55421;51.600;5.718;2023-05-07T07:03:12;20.10;;;16.00;;
68438;SDS011;55421;51.600;5.718;2023-05-07T07:05:40;20.60;;;16.70;;
68438;SDS011;55421;51.600;5.718;2023-05-07T07:08:08;21.50;;;16.90;;
68438;SDS011;55421;51.600;5.718;2023-05-07T07:10:35;19.30;;;16.40;;
68438;SDS011;55421;51.600;5.718;2023-05-07T07:13:02;20.00;;;17.00;;
68438;SDS011;55421;51.600;5.718;2023-05-07T07:15:28;19.40;;;15.70;;
68438;SDS011;55421;51.600;5.718;2023-05-07T07:17:55;18.40;;;16.20;;
68438;SDS011;55421;51.600;5.718;2023-05-07T07:20:21;19.10;;;16.80;;
68438;SDS011;55421;51.600;5.718;2023-05-07T07:22:48;20.00;;;17.20;;
68438;SDS011;55421;51.600;5.718;2023-05-07T07:25:14;20.00;;;16.00;;
68438;SDS011;55421;51.600;5.718;2023-05-07T07:27:41;19.60;;;16.20;;
68438;SDS011;55421;51.600;5.718;2023-05-07T07:30:08;21.00;;;16.00;;
68438;SDS011;55421;51.600;5.718;2023-05-07T07:32:35;17.70;;;15.40;;
68438;SDS011;55421;51.600;5.718;2023-05-07T07:35:01;19.50;;;15.20;;
68438;SDS011;55421;51.600;5.718;2023-05-07T07:37:28;17.90;;;15.40;;
68438;SDS011;55421;51.600;5.718;2023-05-07T07:39:56;21.40;;;15.40;;
68438;SDS011;55421;51.600;5.718;2023-05-07T07:42:22;22.40;;;15.40;;
68438;SDS011;55421;51.600;5.718;2023-05-07T07:44:48;18.50;;;15.30;;
68438;SDS011;55421;51.600;5.718;2023-05-07T07:47:15;17.40;;;14.50;;
68438;SDS011;55421;51.600;5.718;2023-05-07T07:49:42;21.00;;;15.60;;
68438;SDS011;55421;51.600;5.718;2023-05-07T07:52:08;19.20;;;15.80;;
68438;SDS011;55421;51.600;5.718;2023-05-07T07:54:35;22.30;;;16.60;;
68438;SDS011;55421;51.600;5.718;2023-05-07T07:57:01;20.10;;;15.60;;
68438;SDS011;55421;51.600;5.718;2023-05-07T07:59:28;20.90;;;16.50;;
68438;SDS011;55421;51.600;5.718;2023-05-07T08:01:54;20.10;;;15.60;;
68438;SDS011;55421;51.600;5.718;2023-05-07T08:04:23;18.90;;;14.90;;
68438;SDS011;55421;51.600;5.718;2023-05-07T08:06:49;21.20;;;15.90;;
68438;SDS011;55421;51.600;5.718;2023-05-07T08:09:16;16.50;;;14.80;;
68438;SDS011;55421;51.600;5.718;2023-05-07T08:11:42;17.80;;;14.40;;
68438;SDS011;55421;51.600;5.718;2023-05-07T08:14:09;17.20;;;14.40;;
68438;SDS011;55421;51.600;5.718;2023-05-07T08:16:36;17.60;;;14.90;;
68438;SDS011;55421;51.600;5.718;2023-05-07T08:19:02;18.50;;;14.90;;
68438;SDS011;55421;51.600;5.718;2023-05-07T08:21:29;17.70;;;14.30;;
68438;SDS011;55421;51.600;5.718;2023-05-07T08:23:57;19.10;;;14.80;;
68438;SDS011;55421;51.600;5.718;2023-05-07T08:26:23;17.20;;;14.50;;
68438;SDS011;55421;51.600;5.718;2023-05-07T08:28:50;19.20;;;14.90;;
68438;SDS011;55421;51.600;5.718;2023-05-07T08:31:16;17.10;;;14.20;;
68438;SDS011;55421;51.600;5.718;2023-05-07T08:33:43;16.70;;;14.20;;
68438;SDS011;55421;51.600;5.718;2023-05-07T08:36:09;17.70;;;14.30;;
68438;SDS011;55421;51.600;5.718;2023-05-07T08:38:35;16.90;;;14.40;;
68438;SDS011;55421;51.600;5.718;2023-05-07T08:41:02;17.10;;;14.10;;
68438;SDS011;55421;51.600;5.718;2023-05-07T08:43:32;18.10;;;14.80;;
68438;SDS011;55421;51.600;5.718;2023-05-07T08:46:00;15.60;;;13.90;;
68438;SDS011;55421;51.600;5.718;2023-05-07T08:48:29;20.00;;;14.70;;
68438;SDS011;55421;51.600;5.718;2023-05-07T08:50:58;16.20;;;14.10;;
68438;SDS011;55421;51.600;5.718;2023-05-07T08:53:25;16.20;;;13.70;;
68438;SDS011;55421;51.600;5.718;2023-05-07T08:55:53;17.00;;;14.20;;
68438;SDS011;55421;51.600;5.718;2023-05-07T08:58:19;17.20;;;13.60;;
68438;SDS011;55421;51.600;5.718;2023-05-07T09:00:47;19.50;;;14.10;;
68438;SDS011;55421;51.600;5.718;2023-05-07T09:03:14;16.00;;;13.40;;
68438;SDS011;55421;51.600;5.718;2023-05-07T09:05:40;15.70;;;13.90;;
68438;SDS011;55421;51.600;5.718;2023-05-07T09:08:07;15.20;;;13.60;;
68438;SDS011;55421;51.600;5.718;2023-05-07T09:10:36;14.80;;;13.20;;
68438;SDS011;55421;51.600;5.718;2023-05-07T09:13:03;17.20;;;13.20;;
68438;SDS011;55421;51.600;5.718;2023-05-07T09:15:30;17.30;;;14.10;;
68438;SDS011;55421;51.600;5.718;2023-05-07T09:18:00;17.60;;;14.00;;
68438;SDS011;55421;51.600;5.718;2023-05-07T09:20:30;17.40;;;13.90;;
68438;SDS011;55421;51.600;5.718;2023-05-07T09:22:56;18.30;;;14.00;;
68438;SDS011;55421;51.600;5.718;2023-05-07T09:25:34;17.90;;;15.40;;
68438;SDS011;55421;51.600;5.718;2023-05-07T09:28:03;15.30;;;13.60;;
68438;SDS011;55421;51.600;5.718;2023-05-07T09:30:32;18.00;;;14.00;;
68438;SDS011;55421;51.600;5.718;2023-05-07T09:33:01;16.30;;;13.90;;
68438;SDS011;55421;51.600;5.718;2023-05-07T09:35:30;14.90;;;13.30;;
68438;SDS011;55421;51.600;5.718;2023-05-07T09:37:58;15.70;;;13.50;;
68438;SDS011;55421;51.600;5.718;2023-05-07T09:40:28;15.00;;;12.40;;
68438;SDS011;55421;51.600;5.718;2023-05-07T09:43:08;15.70;;;13.40;;
68438;SDS011;55421;51.600;5.718;2023-05-07T09:45:37;16.00;;;12.70;;
68438;SDS011;55421;51.600;5.718;2023-05-07T09:48:05;18.60;;;13.70;;
68438;SDS011;55421;51.600;5.718;2023-05-07T09:50:36;13.30;;;11.00;;
68438;SDS011;55421;51.600;5.718;2023-05-07T09:53:11;14.20;;;12.60;;
68438;SDS011;55421;51.600;5.718;2023-05-07T09:55:39;14.70;;;12.90;;
68438;SDS011;55421;51.600;5.718;2023-05-07T09:58:06;15.00;;;11.90;;
68438;SDS011;55421;51.600;5.718;2023-05-07T10:00:34;15.40;;;12.90;;
68438;SDS011;55421;51.600;5.718;2023-05-07T10:03:02;17.20;;;12.60;;
68438;SDS011;55421;51.600;5.718;2023-05-07T10:05:30;15.50;;;12.10;;
68438;SDS011;55421;51.600;5.718;2023-05-07T10:07:58;15.50;;;12.90;;
68438;SDS011;55421;51.600;5.718;2023-05-07T10:10:25;16.90;;;13.00;;
68438;SDS011;55421;51.600;5.718;2023-05-07T10:12:54;15.40;;;12.30;;
68438;SDS011;55421;51.600;5.718;2023-05-07T10:15:21;14.80;;;12.00;;
68438;SDS011;55421;51.600;5.718;2023-05-07T10:17:48;13.30;;;11.90;;
68438;SDS011;55421;51.600;5.718;2023-05-07T10:20:15;16.10;;;12.70;;
68438;SDS011;55421;51.600;5.718;2023-05-07T10:22:47;15.40;;;12.40;;
68438;SDS011;55421;51.600;5.718;2023-05-07T10:25:21;14.50;;;11.50;;
68438;SDS011;55421;51.600;5.718;2023-05-07T10:27:50;13.90;;;12.40;;
68438;SDS011;55421;51.600;5.718;2023-05-07T10:30:47;14.70;;;12.20;;
68438;SDS011;55421;51.600;5.718;2023-05-07T10:33:29;12.30;;;10.90;;
68438;SDS011;55421;51.600;5.718;2023-05-07T10:35:59;14.40;;;12.20;;
68438;SDS011;55421;51.600;5.718;2023-05-07T10:38:28;13.50;;;11.00;;
68438;SDS011;55421;51.600;5.718;2023-05-07T10:40:54;14.00;;;10.80;;
68438;SDS011;55421;51.600;5.718;2023-05-07T10:43:21;13.50;;;12.10;;
68438;SDS011;55421;51.600;5.718;2023-05-07T10:46:23;13.80;;;12.30;;
68438;SDS011;55421;51.600;5.718;2023-05-07T10:51:35;16.40;;;12.30;;
68438;SDS011;55421;51.600;5.718;2023-05-07T10:56:39;12.80;;;10.70;;
68438;SDS011;55421;51.600;5.718;2023-05-07T11:01:58;14.10;;;11.80;;
68438;SDS011;55421;51.600;5.718;2023-05-07T11:04:25;13.90;;;11.10;;
68438;SDS011;55421;51.600;5.718;2023-05-07T11:15:11;13.60;;;12.20;;
68438;SDS011;55421;51.600;5.718;2023-05-07T11:17:56;11.70;;;10.10;;
68438;SDS011;55421;51.600;5.718;2023-05-07T11:20:53;12.10;;;9.30;;
68438;SDS011;55421;51.600;5.718;2023-05-07T11:26:00;8.70;;;6.80;;
68438;SDS011;55421;51.600;5.718;2023-05-07T11:28:30;13.20;;;8.10;;
68438;SDS011;55421;51.600;5.718;2023-05-07T11:30:57;13.50;;;8.40;;
68438;SDS011;55421;51.600;5.718;2023-05-07T11:33:24;9.20;;;8.10;;
68438;SDS011;55421;51.600;5.718;2023-05-07T11:35:54;11.30;;;9.30;;
68438;SDS011;55421;51.600;5.718;2023-05-07T11:38:22;10.10;;;9.00;;
68438;SDS011;55421;51.600;5.718;2023-05-07T11:40:53;12.40;;;8.20;;
68438;SDS011;55421;51.600;5.718;2023-05-07T11:43:22;10.50;;;8.60;;
68438;SDS011;55421;51.600;5.718;2023-05-07T11:45:50;11.40;;;8.40;;
68438;SDS011;55421;51.600;5.718;2023-05-07T11:48:17;10.50;;;8.30;;
68438;SDS011;55421;51.600;5.718;2023-05-07T11:53:26;9.90;;;8.80;;
68438;SDS011;55421;51.600;5.718;2023-05-07T11:55:56;12.90;;;9.60;;
68438;SDS011;55421;51.600;5.718;2023-05-07T11:58:24;13.60;;;9.70;;
68438;SDS011;55421;51.600;5.718;2023-05-07T12:00:54;10.80;;;9.70;;
68438;SDS011;55421;51.600;5.718;2023-05-07T12:03:21;13.40;;;10.40;;
68438;SDS011;55421;51.600;5.718;2023-05-07T12:05:47;12.80;;;10.10;;
68438;SDS011;55421;51.600;5.718;2023-05-07T12:08:15;11.10;;;9.00;;
68438;SDS011;55421;51.600;5.718;2023-05-07T12:10:43;9.90;;;8.90;;
68438;SDS011;55421;51.600;5.718;2023-05-07T12:13:22;12.20;;;9.80;;
68438;SDS011;55421;51.600;5.718;2023-05-07T12:15:51;10.70;;;9.60;;
68438;SDS011;55421;51.600;5.718;2023-05-07T12:18:19;9.70;;;8.50;;
68438;SDS011;55421;51.600;5.718;2023-05-07T12:20:46;10.60;;;8.80;;
68438;SDS011;55421;51.600;5.718;2023-05-07T12:23:14;14.80;;;8.50;;
68438;SDS011;55421;51.600;5.718;2023-05-07T12:25:43;10.30;;;7.90;;
68438;SDS011;55421;51.600;5.718;2023-05-07T12:28:17;10.40;;;7.90;;
68438;SDS011;55421;51.600;5.718;2023-05-07T12:30:47;8.40;;;7.50;;
68438;SDS011;55421;51.600;5.718;2023-05-07T12:33:18;10.50;;;7.70;;
68438;SDS011;55421;51.600;5.718;2023-05-07T12:35:49;9.10;;;8.10;;
68438;SDS011;55421;51.600;5.718;2023-05-07T12:38:17;12.70;;;8.80;;
68438;SDS011;55421;51.600;5.718;2023-05-07T12:40:46;10.80;;;8.40;;
68438;SDS011;55421;51.600;5.718;2023-05-07T12:43:21;11.70;;;8.60;;
68438;SDS011;55421;51.600;5.718;2023-05-07T12:45:51;17.70;;;9.70;;
68438;SDS011;55421;51.600;5.718;2023-05-07T12:48:20;13.00;;;9.50;;
68438;SDS011;55421;51.600;5.718;2023-05-07T12:50:52;11.30;;;8.60;;
68438;SDS011;55421;51.600;5.718;2023-05-07T12:53:21;10.10;;;8.70;;
68438;SDS011;55421;51.600;5.718;2023-05-07T12:55:53;9.50;;;8.30;;
68438;SDS011;55421;51.600;5.718;2023-05-07T12:58:33;10.30;;;8.90;;
68438;SDS011;55421;51.600;5.718;2023-05-07T13:01:05;9.20;;;8.10;;
68438;SDS011;55421;51.600;5.718;2023-05-07T13:03:36;13.80;;;9.40;;
68438;SDS011;55421;51.600;5.718;2023-05-07T13:06:09;10.70;;;9.00;;
68438;SDS011;55421;51.600;5.718;2023-05-07T13:08:37;11.50;;;9.10;;
68438;SDS011;55421;51.600;5.718;2023-05-07T13:11:12;11.30;;;9.00;;
68438;SDS011;55421;51.600;5.718;2023-05-07T13:13:40;12.30;;;9.20;;
68438;SDS011;55421;51.600;5.718;2023-05-07T13:16:08;11.60;;;8.90;;
68438;SDS011;55421;51.600;5.718;2023-05-07T13:18:38;11.80;;;8.80;;
68438;SDS011;55421;51.600;5.718;2023-05-07T13:21:05;10.00;;;8.60;;
68438;SDS011;55421;51.600;5.718;2023-05-07T13:23:32;9.40;;;8.40;;
68438;SDS011;55421;51.600;5.718;2023-05-07T13:25:59;10.00;;;9.00;;
68438;SDS011;55421;51.600;5.718;2023-05-07T13:28:26;10.40;;;8.70;;
68438;SDS011;55421;51.600;5.718;2023-05-07T13:30:52;9.40;;;7.40;;
68438;SDS011;55421;51.600;5.718;2023-05-07T13:33:20;2.00;;;1.70;;
68438;SDS011;55421;51.600;5.718;2023-05-07T13:35:47;3.80;;;1.90;;
68438;SDS011;55421;51.600;5.718;2023-05-07T13:38:13;3.20;;;1.30;;
68438;SDS011;55421;51.600;5.718;2023-05-07T13:40:42;2.40;;;1.40;;
68438;SDS011;55421;51.600;5.718;2023-05-07T13:43:08;5.40;;;1.60;;
68438;SDS011;55421;51.600;5.718;2023-05-07T13:45:35;1.70;;;1.60;;
68438;SDS011;55421;51.600;5.718;2023-05-07T13:48:01;1.20;;;1.10;;
68438;SDS011;55421;51.600;5.718;2023-05-07T13:50:28;3.40;;;1.40;;
68438;SDS011;55421;51.600;5.718;2023-05-07T13:52:56;5.70;;;1.60;;
68438;SDS011;55421;51.600;5.718;2023-05-07T13:55:23;3.30;;;1.80;;
68438;SDS011;55421;51.600;5.718;2023-05-07T13:57:59;5.00;;;1.60;;
68438;SDS011;55421;51.600;5.718;2023-05-07T14:00:28;3.70;;;1.70;;
68438;SDS011;55421;51.600;5.718;2023-05-07T14:02:56;5.90;;;1.50;;
68438;SDS011;55421;51.600;5.718;2023-05-07T14:05:23;5.40;;;1.40;;
68438;SDS011;55421;51.600;5.718;2023-05-07T14:07:51;1.40;;;1.30;;
68438;SDS011;55421;51.600;5.718;2023-05-07T14:10:18;5.10;;;1.60;;
68438;SDS011;55421;51.600;5.718;2023-05-07T14:12:46;3.80;;;1.90;;
68438;SDS011;55421;51.600;5.718;2023-05-07T14:15:13;2.10;;;1.10;;
68438;SDS011;55421;51.600;5.718;2023-05-07T14:17:41;4.10;;;1.70;;
68438;SDS011;55421;51.600;5.718;2023-05-07T14:20:09;8.50;;;2.10;;
68438;SDS011;55421;51.600;5.718;2023-05-07T14:22:36;3.10;;;1.80;;
68438;SDS011;55421;51.600;5.718;2023-05-07T14:25:04;2.80;;;2.10;;
68438;SDS011;55421;51.600;5.718;2023-05-07T14:27:31;3.00;;;2.10;;
68438;SDS011;55421;51.600;5.718;2023-05-07T14:29:57;8.10;;;2.30;;
68438;SDS011;55421;51.600;5.718;2023-05-07T14:32:24;4.70;;;2.00;;
68438;SDS011;55421;51.600;5.718;2023-05-07T14:34:50;4.10;;;2.40;;
68438;SDS011;55421;51.600;5.718;2023-05-07T14:37:17;3.30;;;2.10;;
68438;SDS011;55421;51.600;5.718;2023-05-07T14:39:45;2.50;;;2.10;;
68438;SDS011;55421;51.600;5.718;2023-05-07T14:42:12;4.70;;;2.40;;
68438;SDS011;55421;51.600;5.718;2023-05-07T14:44:38;4.90;;;2.30;;
68438;SDS011;55421;51.600;5.718;2023-05-07T14:47:07;3.10;;;2.30;;
68438;SDS011;55421;51.600;5.718;2023-05-07T14:49:34;4.70;;;2.40;;
68438;SDS011;55421;51.600;5.718;2023-05-07T14:52:00;3.60;;;2.40;;
68438;SDS011;55421;51.600;5.718;2023-05-07T14:54:27;6.10;;;2.70;;
68438;SDS011;55421;51.600;5.718;2023-05-07T14:56:54;5.60;;;2.20;;